createdAt,value
2018-05-12T00:01:34.557Z,88.00
2018-05-12T00:04:02.133Z,88.50
2018-05-12T00:06:29.736Z,88.40
2018-05-12T00:08:58.052Z,89.10
2018-05-12T00:11:25.606Z,88.90
2018-05-12T00:13:53.168Z,88.60
2018-05-12T00:16:20.748Z,88.60
2018-05-12T00:18:48.300Z,88.80
2018-05-12T00:21:15.856Z,88.30
2018-05-12T00:23:43.405Z,88.50
2018-05-12T00:26:10.956Z,88.20
2018-05-12T00:28:38.536Z,87.60
2018-05-12T00:31:06.088Z,89.40
2018-05-12T00:33:33.937Z,89.20
2018-05-12T00:36:01.489Z,90.00
2018-05-12T00:38:29.056Z,89.10
2018-05-12T00:40:56.610Z,90.00
2018-05-12T00:43:24.180Z,88.60
2018-05-12T00:45:51.756Z,90.10
2018-05-12T00:48:19.304Z,88.00
2018-05-12T00:50:46.860Z,89.90
2018-05-12T00:53:14.420Z,90.30
2018-05-12T00:55:41.969Z,90.20
2018-05-12T00:58:09.553Z,90.70
2018-05-12T01:00:37.105Z,90.00
2018-05-12T01:03:05.500Z,90.00
2018-05-12T01:05:33.051Z,90.00
2018-05-12T01:08:00.604Z,89.00
2018-05-12T01:10:28.164Z,90.00
2018-05-12T01:12:55.720Z,89.70
2018-05-12T01:15:23.272Z,88.60
2018-05-12T01:17:50.820Z,90.00
2018-05-12T01:20:18.376Z,89.70
2018-05-12T01:22:45.960Z,90.00
2018-05-12T01:25:13.540Z,90.00
2018-05-12T01:27:41.856Z,89.40
2018-05-12T01:30:09.405Z,89.10
2018-05-12T01:32:36.963Z,90.60
2018-05-12T01:35:04.517Z,90.80
2018-05-12T01:37:32.084Z,91.20
2018-05-12T01:39:59.637Z,90.60
2018-05-12T01:42:27.190Z,89.90
2018-05-12T01:44:54.742Z,91.00
2018-05-12T01:47:22.288Z,90.80
2018-05-12T01:49:49.856Z,90.90
2018-05-12T01:52:17.400Z,90.60
2018-05-12T01:54:45.716Z,91.10
2018-05-12T01:57:13.261Z,91.20
2018-05-12T01:59:40.816Z,91.00
2018-05-12T02:02:08.396Z,91.10
2018-05-12T02:04:35.945Z,90.50
2018-05-12T02:07:03.493Z,90.80
2018-05-12T02:09:31.043Z,91.60
2018-05-12T02:11:58.800Z,92.20
2018-05-12T02:14:26.374Z,91.20
2018-05-12T02:16:53.929Z,91.30
2018-05-12T02:19:21.476Z,91.80
2018-05-12T02:21:49.020Z,90.40
2018-05-12T02:24:16.576Z,91.80
2018-05-12T02:26:44.157Z,91.60
2018-05-12T02:29:11.704Z,92.10
2018-05-12T02:31:39.252Z,91.50
2018-05-12T02:34:06.797Z,91.80
2018-05-12T02:36:34.344Z,92.20
2018-05-12T02:39:02.689Z,92.40
2018-05-12T02:41:30.237Z,92.40
2018-05-12T02:43:57.780Z,92.20
2018-05-12T02:46:25.334Z,92.50
2018-05-12T02:48:52.901Z,91.80
2018-05-12T02:51:20.473Z,92.10
2018-05-12T02:53:48.018Z,90.50
2018-05-12T02:56:15.570Z,91.90
2018-05-12T02:58:43.128Z,90.40
2018-05-12T03:01:10.681Z,91.10
2018-05-12T03:03:38.255Z,91.70
2018-05-12T03:06:05.808Z,91.30
2018-05-12T03:08:33.362Z,92.30
2018-05-12T03:11:00.913Z,91.40
2018-05-12T03:13:28.466Z,91.90
2018-05-12T03:15:56.044Z,92.50
2018-05-12T03:18:23.600Z,92.10
2018-05-12T03:20:51.152Z,92.60
2018-05-12T03:23:18.696Z,92.50
2018-05-12T03:25:46.248Z,91.60
2018-05-12T03:28:13.823Z,93.30
2018-05-12T03:30:41.368Z,93.30
2018-05-12T03:33:08.992Z,90.60
2018-05-12T03:35:36.524Z,93.60
2018-05-12T03:38:04.073Z,93.80
2018-05-12T03:40:31.655Z,93.30
2018-05-12T03:42:59.208Z,93.40
2018-05-12T03:45:26.760Z,93.00
2018-05-12T03:47:55.105Z,93.30
2018-05-12T03:50:22.674Z,93.30
2018-05-12T03:52:50.268Z,93.10
2018-05-12T03:55:18.168Z,93.60
2018-05-12T03:57:45.722Z,93.20
2018-05-12T04:00:13.276Z,93.50
2018-05-12T04:02:40.828Z,93.50
2018-05-12T04:05:20.800Z,92.70
2018-05-12T04:08:11.840Z,92.60
2018-05-12T04:10:43.932Z,93.00
2018-05-12T04:13:11.494Z,92.50
2018-05-12T04:15:39.815Z,92.20
2018-05-12T04:18:07.565Z,92.10
2018-05-12T04:20:35.123Z,92.50
2018-05-12T04:23:02.694Z,92.90
2018-05-12T04:25:30.246Z,92.60
2018-05-12T04:27:57.800Z,92.20
2018-05-12T04:30:25.363Z,91.70
2018-05-12T04:32:52.912Z,92.00
2018-05-12T04:35:20.500Z,91.00
2018-05-12T04:37:48.050Z,91.20
2018-05-12T04:40:15.600Z,91.00
2018-05-12T04:42:43.155Z,90.20
2018-05-12T04:45:10.714Z,91.30
2018-05-12T04:47:38.304Z,91.40
2018-05-12T04:50:05.866Z,90.60
2018-05-12T04:52:33.436Z,90.70
2018-05-12T04:55:00.984Z,90.20
2018-05-12T04:57:28.539Z,89.40
2018-05-12T04:59:56.116Z,87.80
2018-05-12T05:02:23.675Z,88.60
2018-05-12T05:04:51.992Z,87.00
2018-05-12T05:07:19.544Z,87.00
2018-05-12T05:09:47.092Z,86.30
2018-05-12T05:12:14.673Z,86.90
2018-05-12T05:14:42.229Z,86.80
2018-05-12T05:17:09.792Z,85.90
2018-05-12T05:19:37.351Z,85.10
2018-05-12T05:22:04.904Z,85.20
2018-05-12T05:24:32.489Z,85.70
2018-05-12T05:27:00.040Z,85.00
2018-05-12T05:29:27.588Z,86.40
2018-05-12T05:31:55.140Z,87.50
2018-05-12T05:34:22.698Z,84.00
2018-05-12T05:36:50.275Z,84.40
2018-05-12T05:39:17.828Z,82.90
2018-05-12T05:41:45.420Z,83.70
2018-05-12T05:44:12.968Z,83.50
2018-05-12T05:46:40.520Z,82.80
2018-05-12T05:49:08.096Z,83.10
2018-05-12T05:51:36.414Z,81.20
2018-05-12T05:54:03.970Z,81.10
2018-05-12T05:56:31.524Z,81.90
2018-05-12T05:58:59.091Z,81.40
2018-05-12T06:01:26.675Z,80.40
2018-05-12T06:03:54.232Z,80.40
2018-05-12T06:06:21.783Z,78.80
2018-05-12T06:08:49.341Z,78.60
2018-05-12T06:11:16.901Z,76.20
2018-05-12T06:13:44.480Z,75.50
2018-05-12T06:16:12.028Z,74.90
2018-05-12T06:18:39.586Z,72.80
2018-05-12T06:21:07.140Z,71.40
2018-05-12T06:23:34.689Z,72.40
2018-05-12T06:26:02.274Z,70.20
2018-05-12T06:28:29.824Z,70.50
2018-05-12T06:30:57.376Z,68.60
2018-05-12T06:33:24.995Z,68.30
2018-05-12T06:35:52.532Z,66.80
2018-05-12T06:38:20.848Z,68.10
2018-05-12T06:40:48.395Z,68.10
2018-05-12T06:43:15.956Z,67.70
2018-05-12T06:45:43.512Z,64.90
2018-05-12T06:48:11.068Z,63.80
2018-05-12T06:50:38.626Z,64.30
2018-05-12T06:53:06.267Z,64.30
2018-05-12T06:55:33.816Z,63.50
2018-05-12T06:58:01.385Z,65.10
2018-05-12T07:00:29.010Z,63.10
2018-05-12T07:02:57.449Z,60.90
2018-05-12T07:05:25.045Z,60.80
2018-05-12T07:07:53.396Z,59.70
2018-05-12T07:10:20.944Z,59.70
2018-05-12T07:12:48.508Z,59.70
2018-05-12T07:15:16.056Z,63.50
2018-05-12T07:17:43.609Z,62.40
2018-05-12T07:20:11.180Z,59.30
2018-05-12T07:22:39.499Z,59.90
2018-05-12T07:25:07.820Z,59.50
2018-05-12T07:27:35.373Z,59.50
2018-05-12T07:30:02.952Z,60.60
2018-05-12T07:32:30.545Z,63.60
2018-05-12T07:34:58.865Z,59.00
2018-05-12T07:37:26.419Z,58.90
2018-05-12T07:39:54.085Z,59.30
2018-05-12T07:42:21.641Z,60.70
2018-05-12T07:44:49.220Z,58.60
2018-05-12T07:47:16.788Z,59.10
2018-05-12T07:49:44.340Z,59.10
2018-05-12T07:52:11.896Z,59.60
2018-05-12T07:54:39.452Z,58.20
2018-05-12T07:57:07.195Z,58.10
2018-05-12T07:59:34.750Z,58.80
2018-05-12T08:02:02.417Z,59.00
2018-05-12T08:04:29.972Z,60.20
2018-05-12T08:06:57.528Z,59.80
2018-05-12T08:09:25.104Z,57.80
2018-05-12T08:11:52.657Z,60.90
2018-05-12T08:14:20.980Z,57.00
2018-05-12T08:16:48.537Z,57.00
2018-05-12T08:19:16.088Z,58.30
2018-05-12T08:21:43.868Z,57.70
2018-05-12T08:24:11.420Z,59.20
2018-05-12T08:26:39.736Z,58.60
2018-05-12T08:29:07.380Z,58.70
2018-05-12T08:31:35.025Z,57.40
2018-05-12T08:34:02.542Z,58.50
2018-05-12T08:36:30.095Z,58.00
2018-05-12T08:38:57.651Z,58.60
2018-05-12T08:41:25.244Z,56.90
2018-05-12T08:43:52.796Z,57.70
2018-05-12T08:46:20.371Z,58.10
2018-05-12T08:48:48.692Z,57.20
2018-05-12T08:51:16.251Z,57.10
2018-05-12T08:53:43.849Z,56.90
2018-05-12T08:56:12.172Z,57.10
2018-05-12T08:58:39.756Z,56.90
2018-05-12T09:01:07.304Z,56.40
2018-05-12T09:03:34.856Z,57.10
2018-05-12T09:06:02.415Z,57.90
2018-05-12T09:08:29.987Z,55.00
2018-05-12T09:10:57.564Z,55.80
2018-05-12T09:13:25.135Z,55.30
2018-05-12T09:15:53.449Z,55.30
2018-05-12T09:18:21.017Z,55.10
2018-05-12T09:20:48.772Z,54.40
2018-05-12T09:25:53.036Z,55.80
2018-05-12T09:28:20.590Z,53.50
2018-05-12T09:30:48.172Z,52.90
2018-05-12T09:33:15.728Z,55.70
2018-05-12T09:35:43.281Z,54.80
2018-05-12T09:38:11.607Z,55.80
2018-05-12T09:40:39.176Z,55.80
2018-05-12T09:43:06.752Z,53.20
2018-05-12T09:45:34.309Z,53.30
2018-05-12T09:48:01.892Z,55.30
2018-05-12T09:50:30.216Z,55.20
2018-05-12T09:52:57.777Z,55.00
2018-05-12T09:55:26.108Z,53.50
2018-05-12T09:57:53.665Z,52.60
2018-05-12T10:00:25.027Z,53.40
2018-05-12T10:02:52.576Z,54.50
2018-05-12T10:05:20.133Z,56.80
2018-05-12T10:07:48.482Z,53.60
2018-05-12T10:10:16.032Z,54.20
2018-05-12T10:12:43.606Z,55.00
2018-05-12T10:15:11.192Z,55.30
2018-05-12T10:17:38.748Z,55.70
2018-05-12T10:20:06.328Z,55.00
2018-05-12T10:22:33.896Z,54.00
2018-05-12T10:25:01.449Z,53.80
2018-05-12T10:27:29.007Z,54.10
2018-05-12T10:29:56.565Z,54.60
2018-05-12T10:32:24.144Z,53.00
2018-05-12T10:34:51.712Z,52.70
2018-05-12T10:37:19.264Z,52.60
2018-05-12T10:39:46.812Z,52.60
2018-05-12T10:42:14.396Z,51.70
2018-05-12T10:44:41.982Z,52.30
2018-05-12T10:47:09.540Z,52.90
2018-05-12T10:49:37.092Z,52.80
2018-05-12T10:52:05.417Z,52.10
2018-05-12T10:54:33.061Z,51.80
2018-05-12T10:57:00.573Z,51.30
2018-05-12T10:59:28.128Z,50.30
2018-05-12T11:01:55.884Z,48.70
2018-05-12T11:04:23.407Z,46.50
2018-05-12T11:06:50.964Z,45.90
2018-05-12T11:09:18.585Z,47.30
2018-05-12T11:11:46.900Z,45.80
2018-05-12T11:14:14.455Z,45.70
2018-05-12T11:16:42.006Z,45.80
2018-05-12T11:19:09.560Z,45.00
2018-05-12T11:21:37.177Z,45.20
2018-05-12T11:24:04.733Z,46.40
2018-05-12T11:26:32.335Z,45.40
2018-05-12T11:28:59.873Z,46.00
2018-05-12T11:31:27.432Z,44.50
2018-05-12T11:33:55.032Z,45.70
2018-05-12T11:36:22.601Z,43.50
2018-05-12T11:38:51.048Z,44.10
2018-05-12T11:41:18.504Z,44.10
2018-05-12T11:43:46.061Z,40.80
2018-05-12T11:46:13.640Z,41.90
2018-05-12T11:48:41.199Z,41.20
2018-05-12T11:51:08.759Z,40.60
2018-05-12T11:53:36.308Z,40.40
2018-05-12T11:56:04.283Z,39.50
2018-05-12T11:58:32.238Z,39.80
2018-05-12T12:00:59.808Z,40.80
2018-05-12T12:03:27.358Z,39.70
2018-05-12T12:05:54.909Z,41.80
2018-05-12T12:08:23.517Z,39.70
2018-05-12T12:10:52.078Z,39.90
2018-05-12T12:13:19.636Z,40.00
2018-05-12T12:15:47.194Z,38.40
2018-05-12T12:18:14.772Z,38.00
2018-05-12T12:20:42.333Z,40.80
2018-05-12T12:23:09.885Z,39.30
2018-05-12T12:25:38.453Z,38.50
2018-05-12T12:28:06.011Z,39.30
2018-05-12T12:30:33.573Z,39.30
2018-05-12T12:33:01.126Z,40.50
2018-05-12T12:35:28.686Z,39.90
2018-05-12T12:37:56.240Z,40.10
2018-05-12T12:40:23.793Z,40.30
2018-05-12T12:42:51.349Z,38.70
2018-05-12T12:45:18.928Z,39.50
2018-05-12T12:47:46.491Z,39.60
2018-05-12T12:50:14.048Z,39.30
2018-05-12T12:52:41.608Z,38.90
2018-05-12T12:55:09.163Z,39.10
2018-05-12T12:57:36.740Z,39.60
2018-05-12T13:00:04.288Z,40.10
2018-05-12T13:02:31.838Z,40.00
2018-05-12T13:05:00.160Z,39.40
2018-05-12T13:07:27.718Z,39.30
2018-05-12T13:09:55.289Z,39.10
2018-05-12T13:12:22.840Z,40.60
2018-05-12T13:14:50.409Z,41.20
2018-05-12T13:17:17.965Z,39.30
2018-05-12T13:19:45.532Z,40.10
2018-05-12T13:22:13.148Z,39.60
2018-05-12T13:24:40.692Z,41.50
2018-05-12T13:27:08.246Z,40.30
2018-05-12T13:29:37.313Z,40.20
2018-05-12T13:32:04.884Z,40.10
2018-05-12T13:34:32.467Z,38.90
2018-05-12T13:37:00.020Z,40.40
2018-05-12T13:39:27.578Z,41.10
2018-05-12T13:41:55.145Z,41.40
2018-05-12T13:44:22.697Z,38.90
2018-05-12T13:46:50.284Z,39.10
2018-05-12T13:49:17.837Z,40.40
2018-05-12T13:51:45.396Z,39.60
2018-05-12T13:54:13.717Z,39.20
2018-05-12T13:56:41.268Z,39.20
2018-05-12T13:59:08.860Z,41.30
2018-05-12T14:01:36.416Z,41.60
2018-05-12T14:04:03.972Z,42.00
2018-05-12T14:06:31.562Z,42.80
2018-05-12T14:08:59.881Z,44.40
2018-05-12T14:11:27.456Z,44.30
2018-05-12T14:13:55.009Z,41.70
2018-05-12T14:16:22.564Z,42.30
2018-05-12T14:18:50.897Z,44.10
2018-05-12T14:23:42.200Z,41.30
2018-05-12T14:26:09.792Z,42.40
2018-05-12T14:28:37.367Z,41.80
2018-05-12T14:31:04.916Z,41.50
2018-05-12T14:33:32.467Z,41.00
2018-05-12T14:36:00.044Z,41.00
2018-05-12T14:38:27.608Z,41.20
2018-05-12T14:40:55.936Z,42.00
2018-05-12T14:43:24.257Z,41.40
2018-05-12T14:45:51.810Z,41.30
2018-05-12T14:48:19.384Z,41.60
2018-05-12T14:50:46.937Z,42.80
2018-05-12T14:53:14.489Z,42.00
2018-05-12T14:55:42.045Z,40.50
2018-05-12T14:58:09.600Z,41.30
2018-05-12T15:00:37.178Z,43.20
2018-05-12T15:03:04.728Z,41.50
2018-05-12T15:05:32.282Z,42.00
2018-05-12T15:07:59.832Z,42.20
2018-05-12T15:10:27.397Z,42.90
2018-05-12T15:12:54.985Z,43.50
2018-05-12T15:15:22.540Z,40.80
2018-05-12T15:17:50.091Z,41.80
2018-05-12T15:20:17.651Z,42.80
2018-05-12T15:22:45.200Z,42.40
2018-05-12T15:25:12.772Z,44.10
2018-05-12T15:27:40.324Z,42.10
2018-05-12T15:30:07.872Z,42.70
2018-05-12T15:32:35.428Z,43.30
2018-05-12T15:35:02.983Z,42.00
2018-05-12T15:37:30.560Z,43.10
2018-05-12T15:39:58.116Z,43.80
2018-05-12T15:42:27.185Z,43.00
2018-05-12T15:44:54.739Z,42.90
2018-05-12T15:47:22.298Z,43.60
2018-05-12T15:49:50.640Z,46.00
2018-05-12T15:52:18.206Z,45.90
2018-05-12T15:54:45.756Z,45.20
2018-05-12T15:57:14.081Z,45.90
2018-05-12T15:59:41.656Z,45.80
2018-05-12T16:02:09.208Z,46.00
2018-05-12T16:04:36.756Z,45.40
2018-05-12T16:07:04.312Z,45.60
2018-05-12T16:09:31.866Z,46.50
2018-05-12T16:11:59.436Z,46.80
2018-05-12T16:14:26.986Z,47.50
2018-05-12T16:16:54.560Z,46.50
2018-05-12T16:19:22.112Z,48.50
2018-05-12T16:21:49.668Z,47.20
2018-05-12T16:24:17.248Z,47.90
2018-05-12T16:26:44.813Z,47.70
2018-05-12T16:29:12.377Z,48.20
2018-05-12T16:31:40.816Z,48.30
2018-05-12T16:34:08.274Z,48.20
2018-05-12T16:36:35.854Z,49.10
2018-05-12T16:39:03.408Z,48.90
2018-05-12T16:41:30.955Z,49.60
2018-05-12T16:43:58.507Z,49.60
2018-05-12T16:46:26.056Z,49.30
2018-05-12T16:48:53.636Z,49.60
2018-05-12T16:51:21.187Z,49.60
2018-05-12T16:53:48.745Z,50.00
2018-05-12T16:56:16.296Z,50.70
2018-05-12T16:58:43.848Z,50.50
2018-05-12T17:01:11.428Z,51.40
2018-05-12T17:03:38.984Z,52.00
2018-05-12T17:06:06.668Z,51.60
2018-05-12T17:08:34.244Z,51.80
2018-05-12T17:11:01.804Z,52.10
2018-05-12T17:13:29.390Z,52.40
2018-05-12T17:15:56.944Z,52.10
2018-05-12T17:18:24.504Z,52.70
2018-05-12T17:20:52.074Z,53.10
2018-05-12T17:23:19.688Z,53.50
2018-05-12T17:25:47.250Z,53.60
2018-05-12T17:28:14.804Z,53.90
2018-05-12T17:30:42.360Z,54.10
2018-05-12T17:33:09.915Z,53.90
2018-05-12T17:35:37.474Z,54.00
2018-05-12T17:38:05.202Z,54.40
2018-05-12T17:40:32.758Z,54.60
2018-05-12T17:43:00.341Z,54.60
2018-05-12T17:45:27.896Z,54.60
2018-05-12T17:47:56.224Z,55.50
2018-05-12T17:50:23.776Z,55.40
2018-05-12T17:52:51.329Z,56.00
2018-05-12T17:55:18.909Z,56.00
2018-05-12T17:57:46.464Z,55.90
2018-05-12T18:00:14.018Z,55.80
2018-05-12T18:02:41.564Z,56.20
2018-05-12T18:05:09.112Z,56.60
2018-05-12T18:07:36.695Z,56.40
2018-05-12T18:10:04.248Z,56.90
2018-05-12T18:12:31.808Z,56.80
2018-05-12T18:14:59.360Z,57.40
2018-05-12T18:17:26.957Z,57.70
2018-05-12T18:19:54.627Z,57.90
2018-05-12T18:22:22.212Z,58.10
2018-05-12T18:24:49.884Z,58.00
2018-05-12T18:27:17.433Z,58.30
2018-05-12T18:29:44.999Z,58.60
2018-05-12T18:32:12.572Z,59.30
2018-05-12T18:34:40.143Z,59.40
2018-05-12T18:37:07.700Z,59.70
2018-05-12T18:39:35.253Z,59.70
2018-05-12T18:42:02.849Z,59.70
2018-05-12T18:44:30.424Z,60.00
2018-05-12T18:46:57.971Z,60.20
2018-05-12T18:49:26.294Z,60.80
2018-05-12T18:51:53.857Z,60.60
2018-05-12T18:54:21.417Z,61.60
2018-05-12T18:56:48.997Z,61.90
2018-05-12T18:59:16.840Z,62.40
2018-05-12T19:01:44.395Z,62.80
2018-05-12T19:04:11.952Z,62.60
2018-05-12T19:06:39.508Z,63.70
2018-05-12T19:09:07.092Z,63.30
2018-05-12T19:11:34.640Z,64.30
2018-05-12T19:14:02.196Z,64.00
2018-05-12T19:16:29.752Z,65.00
2018-05-12T19:18:57.304Z,65.00
2018-05-12T19:21:24.881Z,65.00
2018-05-12T19:23:52.431Z,66.40
2018-05-12T19:26:19.993Z,66.00
2018-05-12T19:28:47.546Z,66.40
2018-05-12T19:31:15.110Z,66.70
2018-05-12T19:33:42.688Z,66.60
2018-05-12T19:36:10.240Z,67.10
2018-05-12T19:38:37.796Z,67.80
2018-05-12T19:41:05.349Z,67.20
2018-05-12T19:43:32.906Z,68.10
2018-05-12T19:46:00.487Z,68.20
2018-05-12T19:48:28.036Z,68.40
2018-05-12T19:50:55.585Z,68.10
2018-05-12T19:53:23.145Z,67.70
2018-05-12T19:55:50.700Z,68.00
2018-05-12T19:58:18.269Z,68.70
2018-05-12T20:00:45.828Z,69.40
2018-05-12T20:03:13.376Z,69.30
2018-05-12T20:05:40.924Z,70.20
2018-05-12T20:08:08.480Z,69.40
2018-05-12T20:10:36.056Z,70.00
2018-05-12T20:13:03.608Z,69.80
2018-05-12T20:15:31.161Z,70.20
2018-05-12T20:17:58.719Z,70.20
2018-05-12T20:20:26.276Z,70.40
2018-05-12T20:22:53.853Z,69.70
2018-05-12T20:25:22.180Z,70.00
2018-05-12T20:27:49.737Z,69.90
2018-05-12T20:30:17.289Z,70.40
2018-05-12T20:32:44.848Z,70.60
2018-05-12T20:35:12.424Z,71.30
2018-05-12T20:37:39.983Z,71.50
2018-05-12T20:40:07.544Z,72.10
2018-05-12T20:42:35.875Z,72.40
2018-05-12T20:45:03.439Z,72.40
2018-05-12T20:47:31.011Z,72.80
2018-05-12T20:49:58.564Z,74.30
2018-05-12T20:52:26.117Z,73.70
2018-05-12T20:54:53.669Z,74.00
2018-05-12T20:57:21.215Z,74.40
2018-05-12T20:59:49.553Z,75.40
2018-05-12T21:02:17.104Z,75.30
2018-05-12T21:04:44.668Z,76.10
2018-05-12T21:07:12.221Z,76.70
2018-05-12T21:09:39.780Z,77.10
2018-05-12T21:12:07.348Z,78.60
2018-05-12T21:14:34.905Z,78.00
2018-05-12T21:17:02.468Z,78.10
2018-05-12T21:19:30.041Z,77.80
2018-05-12T21:21:58.362Z,79.10
2018-05-12T21:24:25.912Z,79.00
2018-05-12T21:26:53.460Z,79.10
2018-05-12T21:29:21.030Z,79.80
2018-05-12T21:31:48.790Z,80.60
2018-05-12T21:34:16.548Z,81.10
2018-05-12T21:36:44.100Z,81.30
2018-05-12T21:39:11.659Z,81.10
2018-05-12T21:41:39.207Z,82.10
2018-05-12T21:44:06.784Z,81.20
2018-05-12T21:46:34.336Z,80.80
2018-05-12T21:49:01.886Z,81.60
2018-05-12T21:51:29.450Z,81.70
2018-05-12T21:53:57.010Z,83.10
2018-05-12T21:56:24.588Z,83.70
2018-05-12T21:58:52.159Z,84.80
2018-05-12T22:01:19.720Z,84.80
2018-05-12T22:03:47.267Z,85.10
2018-05-12T22:06:14.818Z,84.40
2018-05-12T22:08:42.392Z,83.30
2018-05-12T22:11:09.940Z,83.90
2018-05-12T22:13:37.496Z,82.20
2018-05-12T22:16:05.049Z,83.80
2018-05-12T22:18:32.684Z,84.30
2018-05-12T22:21:00.201Z,84.40
2018-05-12T22:23:27.756Z,84.90
2018-05-12T22:25:55.308Z,84.50
2018-05-12T22:28:22.857Z,83.30
2018-05-12T22:30:50.413Z,83.30
2018-05-12T22:33:17.984Z,83.80
2018-05-12T22:35:45.544Z,83.80
2018-05-12T22:38:13.099Z,84.10
2018-05-12T22:40:40.648Z,84.50
2018-05-12T22:43:08.467Z,83.70
2018-05-12T22:45:36.036Z,84.40
2018-05-12T22:48:03.589Z,84.60
2018-05-12T22:50:31.272Z,85.60
2018-05-12T22:52:58.852Z,85.50
2018-05-12T22:55:26.399Z,85.20
2018-05-12T22:57:53.961Z,86.20
2018-05-12T23:00:37.124Z,85.90
2018-05-12T23:03:04.676Z,86.60
2018-05-12T23:05:33.021Z,87.80
2018-05-12T23:08:00.576Z,87.80
2018-05-12T23:10:28.125Z,87.50
2018-05-12T23:12:56.446Z,85.90
2018-05-12T23:15:24.000Z,86.30
2018-05-12T23:17:51.576Z,86.20
2018-05-12T23:20:19.888Z,88.00
2018-05-12T23:22:47.443Z,88.00
2018-05-12T23:25:14.993Z,87.40
2018-05-12T23:27:42.542Z,88.50
2018-05-12T23:30:10.114Z,88.20
2018-05-12T23:32:37.668Z,87.70
2018-05-12T23:35:05.220Z,88.60
2018-05-12T23:37:32.772Z,89.80
2018-05-12T23:40:00.324Z,89.80
2018-05-12T23:42:27.946Z,90.00
2018-05-12T23:44:55.468Z,90.00
2018-05-12T23:47:23.020Z,90.00
2018-05-12T23:49:50.564Z,89.00
2018-05-12T23:52:18.123Z,88.20
2018-05-12T23:54:45.700Z,88.90
2018-05-12T23:57:13.251Z,88.20
2018-05-12T23:59:41.164Z,90.20
